Time;durP1;ratioP1;P1;durP2;ratioP2;P2;SDS_P1;SDS_P2;PMS_P1;PMS_P2;Temp;Humidity;BMP_temperature;BMP_pressure;BME280_temperature;BME280_humidity;BME280_pressure;Samples;Min_cycle;Max_cycle;Signal;HPM_P1;HPM_P2
2021/08/29 00:01:00;;;;;;;;;;;;;;;21.96;60.98;100619.06;452184;117;921698;-81
2021/08/29 00:02:03;;;;;;;;;;;;;;;21.99;61.00;100612.94;448458;117;921446;-82
2021/08/29 00:03:07;;;;;;;;;;;;;;;22.00;61.01;100616.52;450579;117;921785;-82
2021/08/29 00:04:10;;;;;;;;;;;;;;;22.02;61.00;100614.30;450562;116;921574;-81
2021/08/29 00:05:13;;;;;;;;;;;;;;;22.03;60.96;100619.56;450546;116;921543;-82
2021/08/29 00:06:17;;;;;;;;;;;;;;;22.04;60.94;100621.23;449549;116;921544;-81
2021/08/29 00:07:20;;;;;;;;;;;;;;;22.06;60.94;100615.36;451113;115;921603;-81
2021/08/29 00:08:23;;;;;;;;;;;;;;;22.04;60.94;100614.84;451050;117;921468;-81
2021/08/29 00:09:27;;;;;;;;;;;;;;;22.05;61.00;100622.06;452568;117;921841;-82
2021/08/29 00:10:30;;;;;;;;;;;;;;;22.03;61.14;100619.56;451690;116;921547;-81
2021/08/29 00:11:34;;;;;;;;;;;;;;;22.00;61.19;100620.13;450760;115;921558;-83
2021/08/29 00:12:37;;;;;;;;;;;;;;;22.00;61.28;100614.58;451138;115;921573;-81
2021/08/29 00:13:40;;;;;;;;;;;;;;;21.99;61.29;100618.50;451887;117;921551;-81
2021/08/29 00:14:43;;;;;;;;;;;;;;;21.98;61.36;100622.38;451670;116;921600;-80
2021/08/29 00:15:46;;;;;;;;;;;;;;;21.97;61.46;100615.17;452388;116;921871;-81
2021/08/29 00:16:49;;;;;;;;;;;;;;;21.97;61.50;100619.89;452557;115;921512;-81
2021/08/29 00:17:52;;;;;;;;;;;;;;;21.96;61.50;100618.22;453276;117;921429;-81
2021/08/29 00:18:56;;;;;;;;;;;;;;;21.94;61.44;100621.28;452653;116;921635;-81
2021/08/29 00:19:59;;;;;;;;;;;;;;;21.94;61.44;100614.90;452748;116;921484;-81
2021/08/29 00:21:03;;;;;;;;;;;;;;;21.91;61.39;100610.73;454013;116;921661;-82
2021/08/29 00:22:06;;;;;;;;;;;;;;;21.89;61.38;100607.41;450232;117;921449;-81
2021/08/29 00:23:09;;;;;;;;;;;;;;;21.88;61.39;100611.33;450171;116;921525;-81
2021/08/29 00:24:12;;;;;;;;;;;;;;;21.86;61.39;100616.33;451263;116;922067;-80
2021/08/29 00:25:15;;;;;;;;;;;;;;;21.85;61.37;100611.89;455145;116;921362;-82
2021/08/29 00:26:19;;;;;;;;;;;;;;;21.84;61.45;100610.23;446198;118;921982;-79
2021/08/29 00:27:23;;;;;;;;;;;;;;;21.82;61.53;100609.70;450983;117;921595;-81
2021/08/29 00:28:27;;;;;;;;;;;;;;;21.82;61.54;100615.26;449607;116;921581;-81
2021/08/29 00:29:30;;;;;;;;;;;;;;;21.81;61.58;100608.04;454537;116;921459;-81
2021/08/29 00:30:34;;;;;;;;;;;;;;;21.83;61.56;100611.34;454211;116;921487;-81
2021/08/29 00:31:37;;;;;;;;;;;;;;;21.83;61.51;100608.56;455830;115;921482;-82
2021/08/29 00:32:41;;;;;;;;;;;;;;;21.83;61.52;100614.11;449569;116;921587;-80
2021/08/29 00:33:44;;;;;;;;;;;;;;;21.83;61.52;100614.11;442694;118;921593;-81
2021/08/29 00:34:47;;;;;;;;;;;;;;;21.84;61.52;100609.39;456898;116;921427;-81
2021/08/29 00:35:52;;;;;;;;;;;;;;;21.85;61.50;100611.05;449630;116;921538;-81
2021/08/29 00:36:55;;;;;;;;;;;;;;;21.85;61.49;100609.11;452309;116;921506;-82
2021/08/29 00:37:58;;;;;;;;;;;;;;;21.87;61.40;100608.84;458614;115;921588;-82
2021/08/29 00:39:02;;;;;;;;;;;;;;;21.87;61.32;100606.89;458716;115;921615;-82
2021/08/29 00:40:06;;;;;;;;;;;;;;;21.89;61.29;100609.36;458205;115;921967;-81
2021/08/29 00:41:09;;;;;;;;;;;;;;;21.90;61.23;100606.30;449410;117;921656;-81
2021/08/29 00:42:13;;;;;;;;;;;;;;;21.91;61.24;100609.91;456171;115;921566;-81
2021/08/29 00:43:20;;;;;;;;;;;;;;;21.90;61.27;100609.08;446596;117;921702;-81
2021/08/29 00:44:23;;;;;;;;;;;;;;;21.90;61.36;100614.62;447314;116;921580;-80
2021/08/29 00:45:27;;;;;;;;;;;;;;;21.90;61.41;100608.24;454554;116;921506;-81
2021/08/29 00:46:32;;;;;;;;;;;;;;;21.89;61.45;100612.12;450980;117;921521;-81
2021/08/29 00:47:36;;;;;;;;;;;;;;;21.88;61.36;100616.88;446671;116;921508;-81
2021/08/29 00:48:43;;;;;;;;;;;;;;;21.89;61.33;100612.12;451981;116;921524;-81
2021/08/29 00:49:47;;;;;;;;;;;;;;;21.88;61.38;100614.11;452000;117;921532;-82
2021/08/29 00:50:51;;;;;;;;;;;;;;;21.87;61.40;100618.00;442778;118;921692;-81
2021/08/29 00:51:56;;;;;;;;;;;;;;;21.84;61.37;100618.55;442750;118;921520;-81
2021/08/29 00:53:01;;;;;;;;;;;;;;;21.82;61.27;100612.48;453274;116;921566;-83
2021/08/29 00:54:05;;;;;;;;;;;;;;;21.79;61.21;100618.59;454139;116;921564;-82
2021/08/29 00:55:10;;;;;;;;;;;;;;;21.75;61.28;100613.91;447553;118;921485;-82
2021/08/29 00:56:17;;;;;;;;;;;;;;;21.74;61.31;100613.08;451453;116;921765;-81
2021/08/29 00:57:21;;;;;;;;;;;;;;;21.74;61.36;100618.62;452874;117;921516;-82
2021/08/29 00:58:26;;;;;;;;;;;;;;;21.72;61.33;100614.50;451410;117;921550;-82
2021/08/29 00:59:30;;;;;;;;;;;;;;;21.69;61.30;100618.66;451354;116;921464;-81
2021/08/29 01:00:34;;;;;;;;;;;;;;;21.67;61.27;100611.77;453110;115;921679;-81
2021/08/29 01:01:39;;;;;;;;;;;;;;;21.65;61.30;100617.59;454038;117;921635;-82
2021/08/29 01:02:44;;;;;;;;;;;;;;;21.63;61.29;100615.09;445566;119;921599;-81
2021/08/29 01:03:48;;;;;;;;;;;;;;;21.62;61.34;100616.20;441075;118;921803;-81
2021/08/29 01:05:06;;;;;;;;;;;;;;;21.61;61.41;100619.29;454397;116;921674;-81
2021/08/29 01:06:13;;;;;;;;;;;;;;;21.59;61.40;100611.24;452390;116;922056;-82
2021/08/29 01:07:20;;;;;;;;;;;;;;;21.57;61.36;100618.18;454923;115;921742;-81
2021/08/29 01:08:29;;;;;;;;;;;;;;;21.55;61.46;100618.49;453736;116;921551;-80
2021/08/29 01:09:34;;;;;;;;;;;;;;;21.55;61.48;100609.34;449814;117;921606;-81
2021/08/29 01:10:41;;;;;;;;;;;;;;;21.55;61.41;100606.56;451454;115;921478;-81
2021/08/29 01:11:48;;;;;;;;;;;;;;;21.56;61.46;100614.58;451644;116;921585;-81
2021/08/29 01:12:55;;;;;;;;;;;;;;;21.56;61.42;100609.02;450499;116;921613;-81
2021/08/29 01:14:03;;;;;;;;;;;;;;;21.57;61.53;100612.63;450186;117;921518;-80
2021/08/29 01:15:07;;;;;;;;;;;;;;;21.56;61.37;100619.29;449559;117;921580;-81
2021/08/29 01:16:20;;;;;;;;;;;;;;;21.52;61.17;100613.50;449753;116;921691;-82
2021/08/29 01:17:30;;;;;;;;;;;;;;;21.50;61.15;100614.91;456276;116;921578;-81
2021/08/29 01:18:34;;;;;;;;;;;;;;;21.47;61.15;100612.70;448867;118;921654;-80
2021/08/29 01:19:40;;;;;;;;;;;;;;;21.46;61.28;100602.71;448706;116;921605;-81
2021/08/29 01:20:46;;;;;;;;;;;;;;;21.46;61.41;100606.31;457241;115;921560;-80
2021/08/29 01:21:50;;;;;;;;;;;;;;;21.46;61.49;100599.94;456963;115;921634;-81
2021/08/29 01:22:55;;;;;;;;;;;;;;;21.47;61.48;100607.98;458300;115;921671;-81
2021/08/29 01:23:59;;;;;;;;;;;;;;;21.49;61.42;100608.53;446861;117;921817;-81
2021/08/29 01:25:03;;;;;;;;;;;;;;;21.51;61.36;100611.00;436811;119;921616;-82
2021/08/29 01:26:11;;;;;;;;;;;;;;;21.50;61.41;100618.49;454140;117;921509;-81
2021/08/29 01:27:20;;;;;;;;;;;;;;;21.48;61.31;100617.14;451246;116;921825;-82
2021/08/29 01:28:41;;;;;;;;;;;;;;;21.46;61.29;100617.41;450265;116;921548;-82
2021/08/29 01:29:45;;;;;;;;;;;;;;;21.44;61.24;100616.05;448477;116;921520;-81
2021/08/29 01:30:49;;;;;;;;;;;;;;;21.41;61.35;100624.94;450078;116;921705;-81
2021/08/29 01:31:52;;;;;;;;;;;;;;;21.39;61.34;100624.41;451264;116;921510;-81
2021/08/29 01:32:58;;;;;;;;;;;;;;;21.36;61.37;100617.47;456627;114;921602;-80
2021/08/29 01:34:05;;;;;;;;;;;;;;;21.35;61.51;100621.36;447958;118;921631;-81
2021/08/29 01:35:09;;;;;;;;;;;;;;;21.33;61.56;100617.22;455620;115;921530;-81
2021/08/29 01:36:14;;;;;;;;;;;;;;;21.33;61.65;100614.45;454085;115;921628;-80
2021/08/29 01:37:18;;;;;;;;;;;;;;;21.35;61.69;100617.75;451662;116;921528;-82
2021/08/29 01:38:22;;;;;;;;;;;;;;;21.36;61.73;100624.96;448858;117;921538;-81
2021/08/29 01:39:26;;;;;;;;;;;;;;;21.35;61.74;100624.13;457048;116;921564;-81
2021/08/29 01:40:30;;;;;;;;;;;;;;;21.33;61.68;100626.38;453049;117;921912;-81
2021/08/29 01:41:35;;;;;;;;;;;;;;;21.31;61.67;100620.28;450013;117;921668;-81
2021/08/29 01:42:38;;;;;;;;;;;;;;;21.30;61.75;100626.09;455595;117;921518;-81
2021/08/29 01:43:43;;;;;;;;;;;;;;;21.28;61.69;100626.38;455462;114;921695;-81
2021/08/29 01:44:47;;;;;;;;;;;;;;;21.25;61.71;100617.80;456173;116;921480;-81
2021/08/29 01:45:50;;;;;;;;;;;;;;;21.23;61.92;100627.23;444071;118;921581;-81
2021/08/29 01:46:55;;;;;;;;;;;;;;;21.24;61.99;100639.16;443368;116;921817;-81
2021/08/29 01:47:59;;;;;;;;;;;;;;;21.26;61.94;100625.02;453871;116;921662;-81
2021/08/29 01:49:05;;;;;;;;;;;;;;;21.26;61.97;100645.27;450455;117;921576;-81
2021/08/29 01:50:09;;;;;;;;;;;;;;;21.26;62.03;100630.56;452223;116;921591;-81
2021/08/29 01:51:15;;;;;;;;;;;;;;;21.25;62.06;100624.19;452671;116;921706;-81
2021/08/29 01:52:20;;;;;;;;;;;;;;;21.25;62.12;100623.35;452828;117;921634;-81
2021/08/29 01:53:29;;;;;;;;;;;;;;;21.25;62.12;100628.89;451587;116;921505;-80
2021/08/29 01:54:37;;;;;;;;;;;;;;;21.26;62.11;100623.08;451605;115;921781;-81
2021/08/29 01:55:42;;;;;;;;;;;;;;;21.27;62.10;100624.73;455396;115;921623;-81
2021/08/29 01:57:03;;;;;;;;;;;;;;;21.30;62.02;100620.55;450769;115;921587;-81
2021/08/29 01:58:08;;;;;;;;;;;;;;;21.30;61.84;100610.29;455377;115;921931;-82
2021/08/29 01:59:13;;;;;;;;;;;;;;;21.34;61.77;100621.62;451680;116;921577;-80
2021/08/29 02:00:18;;;;;;;;;;;;;;;21.36;61.64;100613.87;452233;115;921486;-80
2021/08/29 02:01:22;;;;;;;;;;;;;;;21.36;61.59;100613.87;451957;117;921488;-82
2021/08/29 02:02:29;;;;;;;;;;;;;;;21.37;61.54;100615.53;452955;116;921517;-80
2021/08/29 02:03:32;;;;;;;;;;;;;;;21.37;61.50;100619.14;453189;116;921732;-82
2021/08/29 02:04:42;;;;;;;;;;;;;;;21.39;61.46;100618.86;438925;116;921732;-80
2021/08/29 02:05:47;;;;;;;;;;;;;;;21.39;61.48;100616.09;443239;119;921499;-80
2021/08/29 02:06:52;;;;;;;;;;;;;;;21.38;61.50;100617.20;442900;117;921622;-81
2021/08/29 02:07:57;;;;;;;;;;;;;;;21.36;61.58;100619.41;448266;116;922144;-81
2021/08/29 02:09:07;;;;;;;;;;;;;;;21.34;61.67;100614.14;449758;117;921528;-81
2021/08/29 02:10:19;;;;;;;;;;;;;;;21.44;61.79;100610.51;475797;110;922371;-81
2021/08/29 02:11:24;;;;;;;;;;;;;;;21.32;61.88;100615.56;463897;113;921608;-82
2021/08/29 02:12:28;;;;;;;;;;;;;;;21.29;61.94;100616.95;465279;113;921620;-81
2021/08/29 02:13:33;;;;;;;;;;;;;;;21.27;61.70;100615.59;461583;114;921608;-80
2021/08/29 02:14:38;;;;;;;;;;;;;;;21.23;61.51;100626.40;451533;116;921615;-81
2021/08/29 02:15:48;;;;;;;;;;;;;;;21.21;61.44;100614.78;452804;114;921516;-81
2021/08/29 02:16:53;;;;;;;;;;;;;;;21.18;61.61;100616.16;461526;114;921604;-81
2021/08/29 02:17:59;;;;;;;;;;;;;;;21.18;61.68;100609.78;453622;115;921653;-80
2021/08/29 02:19:02;;;;;;;;;;;;;;;21.17;61.67;100608.95;444314;116;922085;-81
2021/08/29 02:20:07;;;;;;;;;;;;;;;21.18;61.69;100618.94;453964;114;921590;-81
2021/08/29 02:21:11;;;;;;;;;;;;;;;21.19;61.65;100617.83;461150;114;921532;-81
2021/08/29 02:22:15;;;;;;;;;;;;;;;21.20;61.70;100618.66;460853;114;921524;-82
2021/08/29 02:23:21;;;;;;;;;;;;;;;21.21;61.57;100610.06;460846;114;921642;-82
2021/08/29 02:24:25;;;;;;;;;;;;;;;21.21;61.54;100623.94;461159;114;921542;-80
2021/08/29 02:25:29;;;;;;;;;;;;;;;21.23;61.58;100622.83;460880;114;921488;-81
2021/08/29 02:26:33;;;;;;;;;;;;;;;21.22;61.70;100630.31;460303;113;921715;-80
2021/08/29 02:27:38;;;;;;;;;;;;;;;21.21;61.62;100625.88;443747;118;921646;-82
2021/08/29 02:28:42;;;;;;;;;;;;;;;21.19;61.43;100637.24;442994;120;921362;-81
2021/08/29 02:29:46;;;;;;;;;;;;;;;21.17;61.33;100639.45;453543;116;921979;-81
2021/08/29 02:30:51;;;;;;;;;;;;;;;21.14;61.37;100628.95;447504;118;921428;-80
2021/08/29 02:31:55;;;;;;;;;;;;;;;21.13;61.40;100637.51;445064;117;921640;-81
2021/08/29 02:32:59;;;;;;;;;;;;;;;21.12;61.52;100633.06;445330;118;921561;-81
2021/08/29 02:34:03;;;;;;;;;;;;;;;21.10;61.60;100633.37;451938;116;921552;-81
2021/08/29 02:35:07;;;;;;;;;;;;;;;21.10;61.65;100633.37;442069;120;921652;-81
2021/08/29 02:36:14;;;;;;;;;;;;;;;21.11;61.72;100639.75;442421;118;921791;-82
2021/08/29 02:37:19;;;;;;;;;;;;;;;21.10;61.81;100644.47;451355;117;921556;-80
2021/08/29 02:38:27;;;;;;;;;;;;;;;21.09;61.89;100644.73;451552;117;921525;-80
2021/08/29 02:39:30;;;;;;;;;;;;;;;21.07;61.93;100653.33;451825;118;921452;-82
2021/08/29 02:40:36;;;;;;;;;;;;;;;21.06;61.93;100645.32;445274;118;921518;-80
2021/08/29 02:41:42;;;;;;;;;;;;;;;21.05;61.98;100644.48;451422;116;921502;-81
2021/08/29 02:42:46;;;;;;;;;;;;;;;21.06;62.00;100650.86;451440;117;922068;-82
2021/08/29 02:43:50;;;;;;;;;;;;;;;21.07;61.97;100646.95;447558;118;922045;-79
2021/08/29 02:44:54;;;;;;;;;;;;;;;21.09;61.98;100658.61;453379;116;921618;-81
2021/08/29 02:45:58;;;;;;;;;;;;;;;21.10;62.01;100661.10;446286;118;921619;-81
2021/08/29 02:47:04;;;;;;;;;;;;;;;21.10;62.01;100652.78;442673;118;922115;-81
2021/08/29 02:48:08;;;;;;;;;;;;;;;21.10;62.06;100651.95;446937;118;921435;-79
2021/08/29 02:49:13;;;;;;;;;;;;;;;21.11;62.06;100650.84;451043;116;921542;-80
2021/08/29 02:50:19;;;;;;;;;;;;;;;21.12;62.06;100649.70;443966;118;921530;-82
2021/08/29 02:51:23;;;;;;;;;;;;;;;21.14;62.06;100661.36;451610;118;921517;-81
2021/08/29 02:52:29;;;;;;;;;;;;;;;21.15;62.05;100660.28;444364;118;921602;-81
2021/08/29 02:53:32;;;;;;;;;;;;;;;21.15;62.06;100657.51;445299;117;921637;-80
2021/08/29 02:54:37;;;;;;;;;;;;;;;21.14;62.09;100658.58;444270;118;921552;-81
2021/08/29 02:55:41;;;;;;;;;;;;;;;21.13;62.09;100659.69;449513;118;921540;-81
2021/08/29 02:56:46;;;;;;;;;;;;;;;21.11;62.06;100656.39;444955;118;921498;-81
2021/08/29 02:57:51;;;;;;;;;;;;;;;21.09;62.13;100656.66;442924;118;921568;-81
2021/08/29 02:59:00;;;;;;;;;;;;;;;21.10;62.18;100663.05;440373;118;921622;-80
2021/08/29 03:00:05;;;;;;;;;;;;;;;21.09;62.17;100664.98;451185;116;921701;-80
2021/08/29 03:01:09;;;;;;;;;;;;;;;21.09;62.11;100669.70;444270;118;922093;-79
2021/08/29 03:02:33;;;;;;;;;;;;;;;21.08;62.17;100662.48;444753;118;921416;-81
2021/08/29 03:03:37;;;;;;;;;;;;;;;21.07;62.22;100666.36;444320;118;921355;-80
2021/08/29 03:04:40;;;;;;;;;;;;;;;21.07;62.25;100661.65;453716;116;921571;-81
2021/08/29 03:05:44;;;;;;;;;;;;;;;21.08;62.25;100663.31;451995;116;921508;-81
2021/08/29 03:06:48;;;;;;;;;;;;;;;21.10;62.24;100666.65;452033;116;921355;-81
2021/08/29 03:07:51;;;;;;;;;;;;;;;21.12;62.27;100669.11;452914;116;921597;-78
2021/08/29 03:08:55;;;;;;;;;;;;;;;21.12;62.21;100672.72;451824;116;921437;-80
2021/08/29 03:09:58;;;;;;;;;;;;;;;21.12;62.16;100672.72;448042;117;921609;-79
2021/08/29 03:11:02;;;;;;;;;;;;;;;21.11;62.02;100668.31;442528;118;921678;-81
2021/08/29 03:12:09;;;;;;;;;;;;;;;21.11;62.00;100673.02;450994;118;921609;-80
2021/08/29 03:13:15;;;;;;;;;;;;;;;21.12;62.00;100674.66;445398;117;921592;-80
2021/08/29 03:14:20;;;;;;;;;;;;;;;21.12;61.91;100677.43;447496;116;921550;-80
2021/08/29 03:15:24;;;;;;;;;;;;;;;21.13;61.90;100677.16;448820;119;921581;-81
2021/08/29 03:16:30;;;;;;;;;;;;;;;21.14;61.83;100666.91;441117;121;921592;-82
2021/08/29 03:17:45;;;;;;;;;;;;;;;21.13;61.78;100676.33;437615;120;921803;-81
2021/08/29 03:18:49;;;;;;;;;;;;;;;21.14;61.84;100676.09;455118;116;921533;-80
2021/08/29 03:20:13;;;;;;;;;;;;;;;21.14;61.82;100673.31;453019;115;921543;-82
2021/08/29 03:21:24;;;;;;;;;;;;;;;21.14;61.70;100678.86;454094;116;921615;-81
2021/08/29 03:22:28;;;;;;;;;;;;;;;21.14;61.68;100677.99;453529;116;922118;-83
2021/08/29 03:23:32;;;;;;;;;;;;;;;21.13;61.60;100671.61;453610;116;921581;-81
2021/08/29 03:24:36;;;;;;;;;;;;;;;21.12;61.63;100675.49;454164;116;921570;-82
2021/08/29 03:25:39;;;;;;;;;;;;;;;21.11;61.76;100679.41;445221;117;921567;-79
2021/08/29 03:26:43;;;;;;;;;;;;;;;21.11;61.86;100678.57;453339;117;921611;-80
2021/08/29 03:27:55;;;;;;;;;;;;;;;21.09;61.93;100676.08;453794;115;921661;-80
2021/08/29 03:28:58;;;;;;;;;;;;;;;21.09;61.90;100666.92;445855;117;921524;-81
2021/08/29 03:30:02;;;;;;;;;;;;;;;21.08;61.96;100668.86;446665;117;921528;-82
2021/08/29 03:31:05;;;;;;;;;;;;;;;21.08;62.01;100670.80;453603;116;921625;-82
2021/08/29 03:32:09;;;;;;;;;;;;;;;21.07;62.04;100669.97;445459;117;921549;-81
2021/08/29 03:33:13;;;;;;;;;;;;;;;21.07;62.13;100666.36;445352;117;921655;-79
2021/08/29 03:34:18;;;;;;;;;;;;;;;21.08;62.21;100674.41;451645;117;921498;-81
2021/08/29 03:35:21;;;;;;;;;;;;;;;21.08;62.23;100674.41;453874;115;921631;-82
2021/08/29 03:36:28;;;;;;;;;;;;;;;21.08;62.23;100670.80;453424;115;921696;-80
2021/08/29 03:37:32;;;;;;;;;;;;;;;21.07;62.23;100666.36;453945;115;921627;-81
2021/08/29 03:38:38;;;;;;;;;;;;;;;21.06;62.29;100673.84;448248;118;921289;-78
2021/08/29 03:39:42;;;;;;;;;;;;;;;21.07;62.33;100681.05;445939;117;921599;-81
2021/08/29 03:40:48;;;;;;;;;;;;;;;21.07;62.34;100681.05;443880;120;921724;-82
2021/08/29 03:41:53;;;;;;;;;;;;;;;21.07;62.26;100675.52;444444;118;921665;-80
2021/08/29 03:42:57;;;;;;;;;;;;;;;21.07;62.26;100677.45;444960;118;921690;-80
2021/08/29 03:44:00;;;;;;;;;;;;;;;21.06;62.27;100671.08;453585;118;922050;-82
2021/08/29 03:45:06;;;;;;;;;;;;;;;21.07;62.26;100672.73;445512;118;921803;-81
2021/08/29 03:46:09;;;;;;;;;;;;;;;21.07;62.28;100681.05;445720;118;921780;-80
2021/08/29 03:47:13;;;;;;;;;;;;;;;21.08;62.31;100684.66;453225;118;921984;-82
2021/08/29 03:48:17;;;;;;;;;;;;;;;21.08;62.28;100681.89;453370;116;921751;-81
2021/08/29 03:49:21;;;;;;;;;;;;;;;21.08;62.32;100685.50;452098;117;921673;-82
2021/08/29 03:50:25;;;;;;;;;;;;;;;21.08;62.24;100691.05;453195;117;921554;-82
2021/08/29 03:51:28;;;;;;;;;;;;;;;21.06;62.21;100693.25;453317;118;921631;-80
2021/08/29 03:52:32;;;;;;;;;;;;;;;21.05;62.30;100685.24;452980;115;921523;-82
2021/08/29 03:53:47;;;;;;;;;;;;;;;21.05;62.39;100691.62;452099;117;921641;-80
2021/08/29 03:54:50;;;;;;;;;;;;;;;21.06;62.48;100686.91;453405;117;921452;-82
2021/08/29 03:55:54;;;;;;;;;;;;;;;21.06;62.51;100687.70;452925;115;921665;-79
2021/08/29 03:56:57;;;;;;;;;;;;;;;21.06;62.54;100687.70;453190;116;921552;-81
2021/08/29 03:58:01;;;;;;;;;;;;;;;21.06;62.49;100689.68;453210;117;922051;-81
2021/08/29 03:59:06;;;;;;;;;;;;;;;21.06;62.51;100684.13;452798;118;921694;-80
2021/08/29 04:00:10;;;;;;;;;;;;;;;21.06;62.50;100686.91;453158;115;921587;-81
2021/08/29 04:01:22;;;;;;;;;;;;;;;21.05;62.53;100683.30;452983;117;921583;-80
2021/08/29 04:02:26;;;;;;;;;;;;;;;21.05;62.52;100679.70;453477;117;921609;-81
2021/08/29 04:03:29;;;;;;;;;;;;;;;21.05;62.50;100682.47;453252;116;921533;-81
2021/08/29 04:04:35;;;;;;;;;;;;;;;21.06;62.60;100684.13;451847;116;921611;-81
2021/08/29 04:05:39;;;;;;;;;;;;;;;21.07;62.67;100685.77;446411;118;921694;-82
2021/08/29 04:06:43;;;;;;;;;;;;;;;21.07;62.71;100686.60;439487;118;921601;-81
2021/08/29 04:07:50;;;;;;;;;;;;;;;21.07;62.75;100677.45;438866;118;921658;-82
2021/08/29 04:08:54;;;;;;;;;;;;;;;21.05;62.79;100677.75;444211;118;921696;-82
2021/08/29 04:09:58;;;;;;;;;;;;;;;21.07;62.86;100685.77;452666;115;921599;-80
2021/08/29 04:11:03;;;;;;;;;;;;;;;21.07;62.88;100683.00;455436;116;921654;-79
2021/08/29 04:12:09;;;;;;;;;;;;;;;21.07;62.84;100675.52;444599;118;921769;-81
2021/08/29 04:13:14;;;;;;;;;;;;;;;21.08;62.89;100677.17;442546;118;921556;-81
2021/08/29 04:14:37;;;;;;;;;;;;;;;21.08;62.96;100690.20;444191;120;921670;-79
2021/08/29 04:15:40;;;;;;;;;;;;;;;21.08;62.96;100685.50;447069;118;921603;-82
2021/08/29 04:16:44;;;;;;;;;;;;;;;21.08;63.00;100679.95;445277;118;921650;-82
2021/08/29 04:17:52;;;;;;;;;;;;;;;21.10;62.96;100679.67;443151;117;921519;-81
2021/08/29 04:18:58;;;;;;;;;;;;;;;21.11;62.87;100679.41;449696;117;921634;-82
2021/08/29 04:20:01;;;;;;;;;;;;;;;21.12;62.81;100688.52;449622;117;921677;-81
2021/08/29 04:21:04;;;;;;;;;;;;;;;21.14;62.89;100677.99;441918;119;921597;-82
2021/08/29 04:22:09;;;;;;;;;;;;;;;21.15;62.94;100686.07;441896;117;921718;-82
2021/08/29 04:23:12;;;;;;;;;;;;;;;21.16;62.97;100684.13;449446;117;921416;-81
2021/08/29 04:24:16;;;;;;;;;;;;;;;21.17;63.02;100677.48;448328;117;921556;-80
2021/08/29 04:25:21;;;;;;;;;;;;;;;21.18;62.99;100681.88;446644;117;921435;-81
2021/08/29 04:26:25;;;;;;;;;;;;;;;21.18;63.00;100679.94;453661;116;921996;-81
2021/08/29 04:27:30;;;;;;;;;;;;;;;21.20;63.03;100683.28;445605;118;921539;-81
2021/08/29 04:28:33;;;;;;;;;;;;;;;21.23;62.94;100681.06;453592;115;921489;-81
2021/08/29 04:29:36;;;;;;;;;;;;;;;21.23;62.94;100676.31;453474;115;921449;-81
2021/08/29 04:30:41;;;;;;;;;;;;;;;21.25;62.94;100679.65;453340;115;921542;-80
2021/08/29 04:31:46;;;;;;;;;;;;;;;21.26;62.96;100684.09;453302;115;921524;-80
2021/08/29 04:32:53;;;;;;;;;;;;;;;21.27;62.96;100680.20;453312;115;921802;-82
2021/08/29 04:34:05;;;;;;;;;;;;;;;21.30;63.08;100679.62;450670;115;921453;-80
2021/08/29 04:35:13;;;;;;;;;;;;;;;21.33;63.02;100675.47;453242;115;921548;-81
2021/08/29 04:36:17;;;;;;;;;;;;;;;21.35;62.91;100674.06;453728;115;921784;-82
2021/08/29 04:37:21;;;;;;;;;;;;;;;21.37;62.83;100676.55;453521;115;921436;-82
2021/08/29 04:38:27;;;;;;;;;;;;;;;21.39;62.82;100677.91;454188;115;921549;-79
2021/08/29 04:39:30;;;;;;;;;;;;;;;21.41;62.83;100677.64;454166;115;921620;-80
2021/08/29 04:40:34;;;;;;;;;;;;;;;21.44;62.71;100680.70;453446;115;921634;-82
2021/08/29 04:41:38;;;;;;;;;;;;;;;21.47;62.67;100673.73;445294;119;921812;-81
2021/08/29 04:42:41;;;;;;;;;;;;;;;21.50;62.67;100670.41;453756;115;921534;-81
2021/08/29 04:43:44;;;;;;;;;;;;;;;21.52;62.62;100677.31;453712;115;921620;-81
2021/08/29 04:44:47;;;;;;;;;;;;;;;21.55;62.50;100673.98;453258;115;921554;-82
2021/08/29 04:45:50;;;;;;;;;;;;;;;21.58;62.47;100683.66;453636;115;921658;-80
2021/08/29 04:46:56;;;;;;;;;;;;;;;21.59;62.45;100675.06;453460;115;921689;-81
2021/08/29 04:48:00;;;;;;;;;;;;;;;21.62;62.42;100674.48;444537;117;921593;-81
2021/08/29 04:49:03;;;;;;;;;;;;;;;21.63;62.48;100676.14;443533;115;922037;-80
2021/08/29 04:50:07;;;;;;;;;;;;;;;21.66;62.52;100677.53;453619;115;921406;-81
2021/08/29 04:51:10;;;;;;;;;;;;;;;21.67;62.54;100673.61;453345;115;921498;-82
2021/08/29 04:52:14;;;;;;;;;;;;;;;21.68;62.44;100675.28;453159;115;922028;-81
2021/08/29 04:53:17;;;;;;;;;;;;;;;21.69;62.47;100679.72;444101;120;921731;-82
2021/08/29 04:54:20;;;;;;;;;;;;;;;21.72;62.50;100675.55;454067;115;921582;-81
2021/08/29 04:55:24;;;;;;;;;;;;;;;21.73;62.52;100678.02;452987;115;921641;-81
2021/08/29 04:56:29;;;;;;;;;;;;;;;21.75;62.59;100684.13;454932;116;921620;-80
2021/08/29 04:57:32;;;;;;;;;;;;;;;21.77;62.52;100672.75;444912;118;921558;-80
2021/08/29 04:58:36;;;;;;;;;;;;;;;21.78;62.49;100674.38;444770;119;921597;-81
2021/08/29 04:59:40;;;;;;;;;;;;;;;21.81;62.53;100676.61;446919;118;921562;-80
2021/08/29 05:00:44;;;;;;;;;;;;;;;21.80;62.55;100678.55;453496;115;921468;-81
2021/08/29 05:01:48;;;;;;;;;;;;;;;21.81;62.41;100677.44;435521;120;921661;-80
2021/08/29 05:02:52;;;;;;;;;;;;;;;21.82;62.32;100679.10;447263;115;921645;-81
2021/08/29 05:03:56;;;;;;;;;;;;;;;21.83;62.04;100675.19;444695;118;921641;-82
2021/08/29 05:05:00;;;;;;;;;;;;;;;21.83;61.89;100677.16;445796;117;921400;-81
2021/08/29 05:06:03;;;;;;;;;;;;;;;21.83;61.88;100668.83;445869;118;921587;-81
2021/08/29 05:07:06;;;;;;;;;;;;;;;21.83;61.71;100677.96;445882;117;921626;-81
2021/08/29 05:08:10;;;;;;;;;;;;;;;21.83;61.63;100679.94;453724;115;921503;-81
2021/08/29 05:09:13;;;;;;;;;;;;;;;21.83;61.67;100672.41;453526;116;921635;-82
2021/08/29 05:10:17;;;;;;;;;;;;;;;21.84;61.73;100676.84;444357;120;921631;-81
2021/08/29 05:11:22;;;;;;;;;;;;;;;21.85;61.75;100669.35;443568;118;921577;-82
2021/08/29 05:12:25;;;;;;;;;;;;;;;21.85;61.79;100670.19;443381;118;921587;-83
2021/08/29 05:13:29;;;;;;;;;;;;;;;21.88;61.80;100671.57;444070;118;921485;-79
2021/08/29 05:14:32;;;;;;;;;;;;;;;21.88;61.73;100669.62;451445;117;921601;-81
2021/08/29 05:15:35;;;;;;;;;;;;;;;21.89;61.65;100670.43;444532;118;921670;-80
2021/08/29 05:16:38;;;;;;;;;;;;;;;21.91;61.61;100662.66;451212;117;921559;-80
2021/08/29 05:17:42;;;;;;;;;;;;;;;21.91;61.53;100674.59;444889;118;921587;-81
2021/08/29 05:18:46;;;;;;;;;;;;;;;21.93;61.50;100671.53;452945;116;921834;-81
2021/08/29 05:19:51;;;;;;;;;;;;;;;21.94;61.25;100667.65;452875;116;921662;-81
2021/08/29 05:21:12;;;;;;;;;;;;;;;21.95;61.13;100663.77;450600;117;921366;-80
2021/08/29 05:22:36;;;;;;;;;;;;;;;21.97;61.00;100672.64;428465;122;921723;-81
2021/08/29 05:23:43;;;;;;;;;;;;;;;22.00;60.90;100666.50;409880;126;922401;-82
2021/08/29 05:24:51;;;;;;;;;;;;;;;22.00;60.80;100661.78;416164;125;921867;-81
2021/08/29 05:25:55;;;;;;;;;;;;;;;22.02;60.78;100662.33;418830;124;921730;-81
2021/08/29 05:26:58;;;;;;;;;;;;;;;22.05;60.83;100663.72;419438;125;921796;-81
2021/08/29 05:28:02;;;;;;;;;;;;;;;22.07;60.71;100660.63;434751;121;921507;-81
2021/08/29 05:29:06;;;;;;;;;;;;;;;22.09;60.61;100669.51;440139;121;921472;-81
2021/08/29 05:30:09;;;;;;;;;;;;;;;22.11;60.58;100658.95;431029;121;921310;-79
2021/08/29 05:31:13;;;;;;;;;;;;;;;22.12;60.29;100664.19;436166;120;921473;-80